sensor_id;sensor_type;location;lat;lon;timestamp;pressure;altitude;pressure_sealevel;temperature;humidity
71770;BME280;66386;52.122;5.420;2024-03-08T00:02:17;101988.81;;;2.11;100.00
71770;BME280;66386;52.122;5.420;2024-03-08T00:04:43;101997.22;;;2.08;100.00
71770;BME280;66386;52.122;5.420;2024-03-08T00:07:11;101987.03;;;2.05;100.00
71770;BME280;66386;52.122;5.420;2024-03-08T00:09:37;101983.63;;;2.03;100.00
71770;BME280;66386;52.122;5.420;2024-03-08T00:12:04;101983.59;;;2.02;100.00
71770;BME280;66386;52.122;5.420;2024-03-08T00:14:31;101984.38;;;1.98;100.00
71770;BME280;66386;52.122;5.420;2024-03-08T00:16:57;101980.94;;;1.96;100.00
71770;BME280;66386;52.122;5.420;2024-03-08T00:19:24;101981.78;;;1.95;100.00
71770;BME280;66386;52.122;5.420;2024-03-08T00:21:50;101981.75;;;1.93;100.00
71770;BME280;66386;52.122;5.420;2024-03-08T00:24:17;101985.94;;;1.91;100.00
71770;BME280;66386;52.122;5.420;2024-03-08T00:26:43;101977.41;;;1.86;100.00
71770;BME280;66386;52.122;5.420;2024-03-08T00:29:10;101980.75;;;1.85;100.00
71770;BME280;66386;52.122;5.420;2024-03-08T00:31:37;101985.81;;;1.85;100.00
71770;BME280;66386;52.122;5.420;2024-03-08T00:34:03;101990.06;;;1.84;100.00
71770;BME280;66386;52.122;5.420;2024-03-08T00:36:30;101973.06;;;1.79;100.00
71770;BME280;66386;52.122;5.420;2024-03-08T00:38:56;101971.31;;;1.76;100.00
71770;BME280;66386;52.122;5.420;2024-03-08T00:41:23;101972.94;;;1.72;100.00
71770;BME280;66386;52.122;5.420;2024-03-08T00:43:52;101971.19;;;1.70;100.00
71770;BME280;66386;52.122;5.420;2024-03-08T00:46:19;101978.81;;;1.70;100.00
71770;BME280;66386;52.122;5.420;2024-03-08T00:48:45;101971.16;;;1.67;100.00
71770;BME280;66386;52.122;5.420;2024-03-08T00:51:13;101966.88;;;1.64;100.00
71770;BME280;66386;52.122;5.420;2024-03-08T00:53:42;101964.28;;;1.61;100.00
71770;BME280;66386;52.122;5.420;2024-03-08T00:56:09;101964.25;;;1.60;100.00
71770;BME280;66386;52.122;5.420;2024-03-08T00:58:39;101952.34;;;1.55;100.00
71770;BME280;66386;52.122;5.420;2024-03-08T01:01:06;101944.72;;;1.54;100.00
71770;BME280;66386;52.122;5.420;2024-03-08T01:03:33;101943.00;;;1.53;100.00
71770;BME280;66386;52.122;5.420;2024-03-08T01:06:00;101943.88;;;1.53;100.00
71770;BME280;66386;52.122;5.420;2024-03-08T01:08:30;101934.56;;;1.52;100.00
71770;BME280;66386;52.122;5.420;2024-03-08T01:10:57;101926.06;;;1.50;100.00
71770;BME280;66386;52.122;5.420;2024-03-08T01:13:24;101921.81;;;1.48;100.00
71770;BME280;66386;52.122;5.420;2024-03-08T01:15:50;101921.78;;;1.45;100.00
71770;BME280;66386;52.122;5.420;2024-03-08T01:18:17;101919.16;;;1.42;100.00
71770;BME280;66386;52.122;5.420;2024-03-08T01:20:43;101920.84;;;1.41;100.00
71770;BME280;66386;52.122;5.420;2024-03-08T01:23:10;101913.13;;;1.35;100.00
71770;BME280;66386;52.122;5.420;2024-03-08T01:25:36;101911.44;;;1.35;100.00
71770;BME280;66386;52.122;5.420;2024-03-08T01:28:03;101913.13;;;1.35;100.00
71770;BME280;66386;52.122;5.420;2024-03-08T01:30:30;101913.09;;;1.33;100.00
71770;BME280;66386;52.122;5.420;2024-03-08T01:32:59;101908.84;;;1.31;100.00
71770;BME280;66386;52.122;5.420;2024-03-08T01:35:25;101901.19;;;1.28;100.00
71770;BME280;66386;52.122;5.420;2024-03-08T01:37:53;101901.13;;;1.25;100.00
71770;BME280;66386;52.122;5.420;2024-03-08T01:40:20;101896.00;;;1.21;100.00
71770;BME280;66386;52.122;5.420;2024-03-08T01:42:47;101897.59;;;1.18;100.00
71770;BME280;66386;52.122;5.420;2024-03-08T01:45:14;101888.25;;;1.14;100.00
71770;BME280;66386;52.122;5.420;2024-03-08T01:47:41;101895.78;;;1.11;100.00
71770;BME280;66386;52.122;5.420;2024-03-08T01:50:07;101886.38;;;1.05;100.00
71770;BME280;66386;52.122;5.420;2024-03-08T01:52:35;101885.50;;;1.01;100.00
71770;BME280;66386;52.122;5.420;2024-03-08T01:55:05;101882.94;;;1.00;100.00
71770;BME280;66386;52.122;5.420;2024-03-08T01:57:33;101877.84;;;0.98;100.00
71770;BME280;66386;52.122;5.420;2024-03-08T02:00:02;101872.75;;;0.97;100.00
71770;BME280;66386;52.122;5.420;2024-03-08T02:02:32;101873.53;;;0.94;100.00
71770;BME280;66386;52.122;5.420;2024-03-08T02:05:01;101876.03;;;0.93;100.00
71770;BME280;66386;52.122;5.420;2024-03-08T02:07:27;101881.91;;;0.92;100.00
71770;BME280;66386;52.122;5.420;2024-03-08T02:09:54;101871.72;;;0.89;100.00
71770;BME280;66386;52.122;5.420;2024-03-08T02:12:20;101872.50;;;0.86;100.00
71770;BME280;66386;52.122;5.420;2024-03-08T02:14:47;101866.56;;;0.82;100.00
71770;BME280;66386;52.122;5.420;2024-03-08T02:17:14;101869.88;;;0.80;100.00
71770;BME280;66386;52.122;5.420;2024-03-08T02:19:40;101870.63;;;0.76;100.00
71770;BME280;66386;52.122;5.420;2024-03-08T02:22:07;101870.59;;;0.74;100.00
71770;BME280;66386;52.122;5.420;2024-03-08T02:24:34;101864.63;;;0.71;100.00
71770;BME280;66386;52.122;5.420;2024-03-08T02:27:01;101862.91;;;0.69;100.00
71770;BME280;66386;52.122;5.420;2024-03-08T02:29:28;101854.41;;;0.66;100.00
71770;BME280;66386;52.122;5.420;2024-03-08T02:31:55;101851.91;;;0.66;100.00
71770;BME280;66386;52.122;5.420;2024-03-08T02:34:23;101848.47;;;0.64;100.00
71770;BME280;66386;52.122;5.420;2024-03-08T02:36:50;101849.25;;;0.61;100.00
71770;BME280;66386;52.122;5.420;2024-03-08T02:39:16;101846.69;;;0.60;100.00
71770;BME280;66386;52.122;5.420;2024-03-08T02:41:43;101848.38;;;0.59;100.00
71770;BME280;66386;52.122;5.420;2024-03-08T02:44:09;101844.91;;;0.54;100.00
71770;BME280;66386;52.122;5.420;2024-03-08T02:46:36;101838.94;;;0.52;100.00
71770;BME280;66386;52.122;5.420;2024-03-08T02:49:02;101825.41;;;0.48;100.00
71770;BME280;66386;52.122;5.420;2024-03-08T02:51:29;101832.97;;;0.47;100.00
71770;BME280;66386;52.122;5.420;2024-03-08T02:53:57;101827.00;;;0.45;100.00
71770;BME280;66386;52.122;5.420;2024-03-08T02:56:23;101818.53;;;0.43;100.00
71770;BME280;66386;52.122;5.420;2024-03-08T02:58:50;101815.13;;;0.42;100.00
71770;BME280;66386;52.122;5.420;2024-03-08T03:01:16;101815.97;;;0.41;100.00
71770;BME280;66386;52.122;5.420;2024-03-08T03:03:43;101810.84;;;0.38;100.00
71770;BME280;66386;52.122;5.420;2024-03-08T03:06:09;101811.59;;;0.34;100.00
71770;BME280;66386;52.122;5.420;2024-03-08T03:08:36;101804.81;;;0.31;100.00
71770;BME280;66386;52.122;5.420;2024-03-08T03:11:03;101806.50;;;0.31;100.00
71770;BME280;66386;52.122;5.420;2024-03-08T03:13:29;101805.59;;;0.29;100.00
71770;BME280;66386;52.122;5.420;2024-03-08T03:15:56;101804.75;;;0.28;100.00
71770;BME280;66386;52.122;5.420;2024-03-08T03:18:24;101801.38;;;0.28;100.00
71770;BME280;66386;52.122;5.420;2024-03-08T03:20:52;101807.28;;;0.28;100.00
71770;BME280;66386;52.122;5.420;2024-03-08T03:23:19;101796.31;;;0.28;100.00
71770;BME280;66386;52.122;5.420;2024-03-08T03:25:47;101792.88;;;0.26;100.00
71770;BME280;66386;52.122;5.420;2024-03-08T03:28:13;101797.09;;;0.25;100.00
71770;BME280;66386;52.122;5.420;2024-03-08T03:30:45;101791.16;;;0.25;100.00
71770;BME280;66386;52.122;5.420;2024-03-08T03:33:13;101786.03;;;0.22;100.00
71770;BME280;66386;52.122;5.420;2024-03-08T03:35:41;101786.03;;;0.22;100.00
71770;BME280;66386;52.122;5.420;2024-03-08T03:38:09;101784.41;;;0.22;100.00
71770;BME280;66386;52.122;5.420;2024-03-08T03:40:38;101787.75;;;0.23;100.00
71770;BME280;66386;52.122;5.420;2024-03-08T03:43:05;101784.34;;;0.19;100.00
71770;BME280;66386;52.122;5.420;2024-03-08T03:45:32;101783.44;;;0.17;100.00
71770;BME280;66386;52.122;5.420;2024-03-08T03:48:07;101784.25;;;0.16;100.00
71770;BME280;66386;52.122;5.420;2024-03-08T03:50:37;101780.06;;;0.16;100.00
71770;BME280;66386;52.122;5.420;2024-03-08T03:53:04;101776.63;;;0.14;100.00
71770;BME280;66386;52.122;5.420;2024-03-08T03:55:36;101778.31;;;0.14;100.00
71770;BME280;66386;52.122;5.420;2024-03-08T03:58:07;101774.09;;;0.14;100.00
71770;BME280;66386;52.122;5.420;2024-03-08T04:00:37;101774.13;;;0.16;100.00
71770;BME280;66386;52.122;5.420;2024-03-08T04:03:04;101774.13;;;0.16;100.00
71770;BME280;66386;52.122;5.420;2024-03-08T04:05:31;101773.31;;;0.17;100.00
71770;BME280;66386;52.122;5.420;2024-03-08T04:07:58;101765.69;;;0.15;100.00
71770;BME280;66386;52.122;5.420;2024-03-08T04:10:24;101771.63;;;0.17;100.00
71770;BME280;66386;52.122;5.420;2024-03-08T04:12:51;101771.63;;;0.17;100.00
71770;BME280;66386;52.122;5.420;2024-03-08T04:15:17;101760.69;;;0.17;100.00
71770;BME280;66386;52.122;5.420;2024-03-08T04:17:44;101760.69;;;0.19;100.00
71770;BME280;66386;52.122;5.420;2024-03-08T04:20:12;101752.25;;;0.16;100.00
71770;BME280;66386;52.122;5.420;2024-03-08T04:22:44;101758.97;;;0.16;100.00
71770;BME280;66386;52.122;5.420;2024-03-08T04:25:11;101753.84;;;0.13;100.00
71770;BME280;66386;52.122;5.420;2024-03-08T04:27:37;101749.63;;;0.12;100.00
71770;BME280;66386;52.122;5.420;2024-03-08T04:30:04;101757.13;;;0.09;100.00
71770;BME280;66386;52.122;5.420;2024-03-08T04:32:34;101753.75;;;0.08;100.00
71770;BME280;66386;52.122;5.420;2024-03-08T04:35:01;101745.31;;;0.08;100.00
71770;BME280;66386;52.122;5.420;2024-03-08T04:37:28;101741.94;;;0.07;100.00
71770;BME280;66386;52.122;5.420;2024-03-08T04:39:56;101747.84;;;0.08;100.00
71770;BME280;66386;52.122;5.420;2024-03-08T04:42:23;101744.44;;;0.07;100.00
71770;BME280;66386;52.122;5.420;2024-03-08T04:44:50;101739.38;;;0.06;100.00
71770;BME280;66386;52.122;5.420;2024-03-08T04:47:17;101747.81;;;0.06;100.00
71770;BME280;66386;52.122;5.420;2024-03-08T04:49:44;101742.81;;;0.08;100.00
71770;BME280;66386;52.122;5.420;2024-03-08T04:52:11;101738.53;;;0.05;100.00
71770;BME280;66386;52.122;5.420;2024-03-08T04:54:38;101740.16;;;0.02;100.00
71770;BME280;66386;52.122;5.420;2024-03-08T04:57:05;101734.19;;;-0.01;100.00
71770;BME280;66386;52.122;5.420;2024-03-08T04:59:35;101746.81;;;-0.01;100.00
71770;BME280;66386;52.122;5.420;2024-03-08T05:02:03;101729.94;;;-0.02;100.00
71770;BME280;66386;52.122;5.420;2024-03-08T05:04:29;101732.41;;;-0.05;100.00
71770;BME280;66386;52.122;5.420;2024-03-08T05:06:56;101739.97;;;-0.06;100.00
71770;BME280;66386;52.122;5.420;2024-03-08T05:09:23;101728.16;;;-0.07;100.00
71770;BME280;66386;52.122;5.420;2024-03-08T05:11:50;101734.91;;;-0.06;100.00
71770;BME280;66386;52.122;5.420;2024-03-08T05:14:17;101739.13;;;-0.07;100.00
71770;BME280;66386;52.122;5.420;2024-03-08T05:16:44;101734.09;;;-0.05;100.00
71770;BME280;66386;52.122;5.420;2024-03-08T05:19:19;101729.00;;;-0.07;100.00
71770;BME280;66386;52.122;5.420;2024-03-08T05:21:46;101731.47;;;-0.10;100.00
71770;BME280;66386;52.122;5.420;2024-03-08T05:24:14;101730.66;;;-0.09;100.00
71770;BME280;66386;52.122;5.420;2024-03-08T05:26:42;101722.25;;;-0.08;100.00
71770;BME280;66386;52.122;5.420;2024-03-08T05:29:09;101721.38;;;-0.10;100.00
71770;BME280;66386;52.122;5.420;2024-03-08T05:31:43;101717.16;;;-0.09;100.00
71770;BME280;66386;52.122;5.420;2024-03-08T05:34:11;101717.09;;;-0.12;100.00
71770;BME280;66386;52.122;5.420;2024-03-08T05:36:41;101722.13;;;-0.14;100.00
71770;BME280;66386;52.122;5.420;2024-03-08T05:39:13;101720.38;;;-0.16;100.00
71770;BME280;66386;52.122;5.420;2024-03-08T05:41:40;101716.16;;;-0.17;100.00
71770;BME280;66386;52.122;5.420;2024-03-08T05:44:07;101718.69;;;-0.17;100.00
71770;BME280;66386;52.122;5.420;2024-03-08T05:46:34;101712.72;;;-0.20;100.00
71770;BME280;66386;52.122;5.420;2024-03-08T05:49:02;101710.19;;;-0.20;100.00
71770;BME280;66386;52.122;5.420;2024-03-08T05:51:33;101707.66;;;-0.21;100.00
71770;BME280;66386;52.122;5.420;2024-03-08T05:54:03;101709.28;;;-0.23;100.00
71770;BME280;66386;52.122;5.420;2024-03-08T05:56:32;101702.56;;;-0.23;100.00
71770;BME280;66386;52.122;5.420;2024-03-08T05:58:59;101693.28;;;-0.24;100.00
71770;BME280;66386;52.122;5.420;2024-03-08T06:01:27;101695.75;;;-0.25;100.00
71770;BME280;66386;52.122;5.420;2024-03-08T06:03:54;101697.47;;;-0.24;100.00
71770;BME280;66386;52.122;5.420;2024-03-08T06:06:24;101688.19;;;-0.25;100.00
71770;BME280;66386;52.122;5.420;2024-03-08T06:08:51;101687.31;;;-0.27;100.00
71770;BME280;66386;52.122;5.420;2024-03-08T06:11:19;101688.97;;;-0.28;100.00
71770;BME280;66386;52.122;5.420;2024-03-08T06:13:49;101693.97;;;-0.29;100.00
71770;BME280;66386;52.122;5.420;2024-03-08T06:16:16;101691.50;;;-0.28;100.00
71770;BME280;66386;52.122;5.420;2024-03-08T06:18:43;101688.97;;;-0.28;100.00
71770;BME280;66386;52.122;5.420;2024-03-08T06:21:10;101688.13;;;-0.28;100.00
71770;BME280;66386;52.122;5.420;2024-03-08T06:23:39;101688.13;;;-0.28;100.00
71770;BME280;66386;52.122;5.420;2024-03-08T06:26:09;101690.63;;;-0.30;100.00
71770;BME280;66386;52.122;5.420;2024-03-08T06:28:35;101683.88;;;-0.29;100.00
71770;BME280;66386;52.122;5.420;2024-03-08T06:31:02;101682.19;;;-0.30;100.00
71770;BME280;66386;52.122;5.420;2024-03-08T06:33:29;101691.47;;;-0.29;100.00
71770;BME280;66386;52.122;5.420;2024-03-08T06:35:57;101691.47;;;-0.29;100.00
71770;BME280;66386;52.122;5.420;2024-03-08T06:38:26;101688.97;;;-0.28;100.00
71770;BME280;66386;52.122;5.420;2024-03-08T06:40:53;101698.31;;;-0.24;100.00
71770;BME280;66386;52.122;5.420;2024-03-08T06:43:21;101683.19;;;-0.22;100.00
71770;BME280;66386;52.122;5.420;2024-03-08T06:45:48;101678.16;;;-0.21;100.00
71770;BME280;66386;52.122;5.420;2024-03-08T06:48:16;101672.34;;;-0.18;100.00
71770;BME280;66386;52.122;5.420;2024-03-08T06:50:47;101682.50;;;-0.15;100.00
71770;BME280;66386;52.122;5.420;2024-03-08T06:53:14;101671.59;;;-0.14;100.00
71770;BME280;66386;52.122;5.420;2024-03-08T06:55:42;101675.00;;;-0.10;100.00
71770;BME280;66386;52.122;5.420;2024-03-08T06:58:08;101671.69;;;-0.08;100.00
71770;BME280;66386;52.122;5.420;2024-03-08T07:00:37;101671.75;;;-0.05;100.00
71770;BME280;66386;52.122;5.420;2024-03-08T07:03:07;101672.69;;;-0.01;100.00
71770;BME280;66386;52.122;5.420;2024-03-08T07:05:34;101676.09;;;0.01;100.00
71770;BME280;66386;52.122;5.420;2024-03-08T07:08:01;101679.59;;;0.06;100.00
71770;BME280;66386;52.122;5.420;2024-03-08T07:10:28;101666.19;;;0.10;100.00
71770;BME280;66386;52.122;5.420;2024-03-08T07:12:55;101676.38;;;0.15;100.00
71770;BME280;66386;52.122;5.420;2024-03-08T07:15:21;101669.69;;;0.19;100.00
71770;BME280;66386;52.122;5.420;2024-03-08T07:17:49;101663.88;;;0.23;100.00
71770;BME280;66386;52.122;5.420;2024-03-08T07:20:19;101675.78;;;0.28;100.00
71770;BME280;66386;52.122;5.420;2024-03-08T07:22:46;101666.59;;;0.33;100.00
71770;BME280;66386;52.122;5.420;2024-03-08T07:25:19;101662.53;;;0.40;100.00
71770;BME280;66386;52.122;5.420;2024-03-08T07:27:50;101662.66;;;0.48;100.00
71770;BME280;66386;52.122;5.420;2024-03-08T07:30:21;101657.72;;;0.54;100.00
71770;BME280;66386;52.122;5.420;2024-03-08T07:33:06;101656.16;;;0.62;100.00
71770;BME280;66386;52.122;5.420;2024-03-08T07:35:34;101648.69;;;0.70;100.00
71770;BME280;66386;52.122;5.420;2024-03-08T07:38:04;101645.50;;;0.80;100.00
71770;BME280;66386;52.122;5.420;2024-03-08T07:43:11;101635.75;;;1.05;100.00
71770;BME280;66386;52.122;5.420;2024-03-08T07:45:38;101641.16;;;1.28;100.00
71770;BME280;66386;52.122;5.420;2024-03-08T07:48:05;101640.63;;;1.49;100.00
71770;BME280;66386;52.122;5.420;2024-03-08T07:50:37;101644.34;;;1.74;100.00
71770;BME280;66386;52.122;5.420;2024-03-08T07:53:06;101628.59;;;1.99;100.00
71770;BME280;66386;52.122;5.420;2024-03-08T07:55:36;101627.94;;;2.18;100.00
71770;BME280;66386;52.122;5.420;2024-03-08T07:58:03;101630.59;;;2.31;100.00
71770;BME280;66386;52.122;5.420;2024-03-08T08:00:30;101619.75;;;2.44;100.00
71770;BME280;66386;52.122;5.420;2024-03-08T08:02:58;101617.34;;;2.62;100.00
71770;BME280;66386;52.122;5.420;2024-03-08T08:05:25;101619.22;;;2.79;100.00
71770;BME280;66386;52.122;5.420;2024-03-08T08:07:52;101616.78;;;2.94;100.00
71770;BME280;66386;52.122;5.420;2024-03-08T08:10:20;101608.38;;;3.05;100.00
71770;BME280;66386;52.122;5.420;2024-03-08T08:12:52;101610.09;;;3.10;100.00
71770;BME280;66386;52.122;5.420;2024-03-08T08:15:18;101602.63;;;3.30;100.00
71770;BME280;66386;52.122;5.420;2024-03-08T08:17:45;101599.31;;;3.47;100.00
71770;BME280;66386;52.122;5.420;2024-03-08T08:20:12;101601.03;;;3.51;100.00
71770;BME280;66386;52.122;5.420;2024-03-08T08:22:42;101596.78;;;3.53;100.00
71770;BME280;66386;52.122;5.420;2024-03-08T08:25:12;101596.84;;;3.65;100.00
71770;BME280;66386;52.122;5.420;2024-03-08T08:27:39;101597.75;;;3.80;100.00
71770;BME280;66386;52.122;5.420;2024-03-08T08:30:06;101590.16;;;3.84;100.00
71770;BME280;66386;52.122;5.420;2024-03-08T08:32:35;101583.41;;;3.94;100.00
71770;BME280;66386;52.122;5.420;2024-03-08T08:35:06;101589.31;;;3.98;100.00
71770;BME280;66386;52.122;5.420;2024-03-08T08:37:34;101583.41;;;4.08;100.00
71770;BME280;66386;52.122;5.420;2024-03-08T08:40:03;101577.50;;;4.20;100.00
71770;BME280;66386;52.122;5.420;2024-03-08T08:42:38;101581.75;;;4.33;100.00
71770;BME280;66386;52.122;5.420;2024-03-08T08:45:05;101571.56;;;4.32;100.00
71770;BME280;66386;52.122;5.420;2024-03-08T08:47:42;101576.66;;;4.35;100.00
71770;BME280;66386;52.122;5.420;2024-03-08T08:50:09;101566.50;;;4.46;100.00
71770;BME280;66386;52.122;5.420;2024-03-08T08:52:38;101563.13;;;4.53;100.00
71770;BME280;66386;52.122;5.420;2024-03-08T08:55:07;101567.34;;;4.62;100.00
71770;BME280;66386;52.122;5.420;2024-03-08T08:57:34;101557.16;;;4.69;100.00
71770;BME280;66386;52.122;5.420;2024-03-08T09:00:01;101552.88;;;4.73;100.00
71770;BME280;66386;52.122;5.420;2024-03-08T09:02:28;101553.75;;;4.78;100.00
71770;BME280;66386;52.122;5.420;2024-03-08T09:04:56;101549.50;;;4.86;100.00
71770;BME280;66386;52.122;5.420;2024-03-08T09:07:23;101548.63;;;4.97;100.00
71770;BME280;66386;52.122;5.420;2024-03-08T09:09:50;101548.56;;;5.15;100.00
71770;BME280;66386;52.122;5.420;2024-03-08T09:12:16;101535.75;;;5.35;100.00
71770;BME280;66386;52.122;5.420;2024-03-08T09:14:44;101544.22;;;5.47;100.00
71770;BME280;66386;52.122;5.420;2024-03-08T09:17:10;101539.06;;;5.64;100.00
71770;BME280;66386;52.122;5.420;2024-03-08T09:19:37;101532.97;;;5.85;100.00
71770;BME280;66386;52.122;5.420;2024-03-08T09:22:04;101529.44;;;6.10;100.00
71770;BME280;66386;52.122;5.420;2024-03-08T09:24:31;101522.25;;;6.59;100.00
71770;BME280;66386;52.122;5.420;2024-03-08T09:26:57;101519.06;;;7.18;100.00
71770;BME280;66386;52.122;5.420;2024-03-08T09:29:27;101511.69;;;7.61;100.00
71770;BME280;66386;52.122;5.420;2024-03-08T09:31:54;101510.28;;;8.01;100.00
71770;BME280;66386;52.122;5.420;2024-03-08T09:34:21;101508.91;;;8.33;100.00
71770;BME280;66386;52.122;5.420;2024-03-08T09:36:54;101506.22;;;8.41;100.00
71770;BME280;66386;52.122;5.420;2024-03-08T09:39:21;101503.72;;;8.36;100.00
71770;BME280;66386;52.122;5.420;2024-03-08T09:41:50;101501.03;;;7.91;100.00
71770;BME280;66386;52.122;5.420;2024-03-08T09:44:16;101495.81;;;7.38;100.00
71770;BME280;66386;52.122;5.420;2024-03-08T09:46:45;101493.53;;;7.14;100.00
71770;BME280;66386;52.122;5.420;2024-03-08T09:49:15;101485.19;;;7.00;100.00
71770;BME280;66386;52.122;5.420;2024-03-08T09:51:41;101479.25;;;6.98;100.00
71770;BME280;66386;52.122;5.420;2024-03-08T09:54:08;101471.63;;;6.92;100.00
71770;BME280;66386;52.122;5.420;2024-03-08T09:56:46;101476.03;;;6.82;100.00
71770;BME280;66386;52.122;5.420;2024-03-08T09:59:14;101476.13;;;6.73;100.00
71770;BME280;66386;52.122;5.420;2024-03-08T10:01:49;101467.63;;;6.71;100.00
71770;BME280;66386;52.122;5.420;2024-03-08T10:04:18;101460.00;;;6.68;100.00
71770;BME280;66386;52.122;5.420;2024-03-08T10:06:46;101464.13;;;6.79;100.00
71770;BME280;66386;52.122;5.420;2024-03-08T10:09:14;101452.84;;;6.97;100.00
71770;BME280;66386;52.122;5.420;2024-03-08T10:11:40;101459.59;;;7.02;100.00
71770;BME280;66386;52.122;5.420;2024-03-08T10:14:10;101453.56;;;7.09;100.00
71770;BME280;66386;52.122;5.420;2024-03-08T10:16:40;101443.34;;;7.07;100.00
71770;BME280;66386;52.122;5.420;2024-03-08T10:19:07;101431.38;;;7.11;100.00
71770;BME280;66386;52.122;5.420;2024-03-08T10:21:36;101432.84;;;7.29;100.00
71770;BME280;66386;52.122;5.420;2024-03-08T10:24:13;101426.91;;;7.27;100.00
71770;BME280;66386;52.122;5.420;2024-03-08T10:26:40;101419.31;;;7.22;100.00
71770;BME280;66386;52.122;5.420;2024-03-08T10:29:10;101417.44;;;7.33;100.00
71770;BME280;66386;52.122;5.420;2024-03-08T10:31:37;101417.44;;;7.33;100.00
71770;BME280;66386;52.122;5.420;2024-03-08T10:34:05;101417.44;;;7.35;100.00
71770;BME280;66386;52.122;5.420;2024-03-08T10:36:33;101394.47;;;7.32;100.00
71770;BME280;66386;52.122;5.420;2024-03-08T10:39:01;101409.69;;;7.40;100.00
71770;BME280;66386;52.122;5.420;2024-03-08T10:41:30;101401.03;;;7.48;100.00
71770;BME280;66386;52.122;5.420;2024-03-08T10:49:30;101383.88;;;7.57;100.00
71770;BME280;66386;52.122;5.420;2024-03-08T10:51:58;101386.06;;;7.80;100.00
71770;BME280;66386;52.122;5.420;2024-03-08T10:54:26;101368.88;;;7.86;100.00
71770;BME280;66386;52.122;5.420;2024-03-08T10:56:53;101374.00;;;7.85;100.00
71770;BME280;66386;52.122;5.420;2024-03-08T10:59:21;101366.25;;;7.90;100.00
71770;BME280;66386;52.122;5.420;2024-03-08T11:01:48;101357.72;;;7.91;100.00
71770;BME280;66386;52.122;5.420;2024-03-08T11:04:15;101353.22;;;8.03;100.00
71770;BME280;66386;52.122;5.420;2024-03-08T11:06:46;101350.63;;;8.05;100.00
71770;BME280;66386;52.122;5.420;2024-03-08T11:12:38;101319.06;;;8.06;100.00
71770;BME280;66386;52.122;5.420;2024-03-08T11:15:14;101319.63;;;8.19;100.00
71770;BME280;66386;52.122;5.420;2024-03-08T11:17:44;101323.91;;;8.20;100.00
71770;BME280;66386;52.122;5.420;2024-03-08T11:20:12;101324.47;;;8.34;100.00
71770;BME280;66386;52.122;5.420;2024-03-08T11:22:51;101309.88;;;8.38;100.00
71770;BME280;66386;52.122;5.420;2024-03-08T11:25:34;101301.22;;;8.44;99.96
71770;BME280;66386;52.122;5.420;2024-03-08T11:30:33;101288.06;;;8.62;100.00
71770;BME280;66386;52.122;5.420;2024-03-08T11:33:01;101280.03;;;8.79;100.00
71770;BME280;66386;52.122;5.420;2024-03-08T11:35:29;101278.84;;;8.94;100.00
71770;BME280;66386;52.122;5.420;2024-03-08T11:37:59;101270.25;;;8.97;99.82
71770;BME280;66386;52.122;5.420;2024-03-08T11:40:27;101270.13;;;9.01;96.89
71770;BME280;66386;52.122;5.420;2024-03-08T11:42:53;101265.59;;;9.13;97.14
71770;BME280;66386;52.122;5.420;2024-03-08T11:45:21;101257.91;;;9.13;94.75
71770;BME280;66386;52.122;5.420;2024-03-08T11:47:48;101254.47;;;9.12;91.73
71770;BME280;66386;52.122;5.420;2024-03-08T11:50:16;101249.34;;;9.12;92.66
71770;BME280;66386;52.122;5.420;2024-03-08T11:52:46;101249.84;;;9.26;93.18
71770;BME280;66386;52.122;5.420;2024-03-08T11:55:13;101242.75;;;9.38;89.94
71770;BME280;66386;52.122;5.420;2024-03-08T11:57:40;101237.59;;;9.38;90.03
71770;BME280;66386;52.122;5.420;2024-03-08T12:00:15;101232.16;;;9.50;90.19
71770;BME280;66386;52.122;5.420;2024-03-08T12:03:01;101229.53;;;9.52;86.21
71770;BME280;66386;52.122;5.420;2024-03-08T12:05:28;101234.53;;;9.58;86.12
71770;BME280;66386;52.122;5.420;2024-03-08T12:07:58;101221.63;;;9.61;86.78
71770;BME280;66386;52.122;5.420;2024-03-08T12:10:25;101218.97;;;9.64;85.33
71770;BME280;66386;52.122;5.420;2024-03-08T12:12:53;101219.97;;;9.58;82.64
71770;BME280;66386;52.122;5.420;2024-03-08T12:15:22;101204.63;;;9.57;82.71
71770;BME280;66386;52.122;5.420;2024-03-08T12:17:51;101205.56;;;9.53;84.24
71770;BME280;66386;52.122;5.420;2024-03-08T12:20:26;101214.16;;;9.52;82.54
71770;BME280;66386;52.122;5.420;2024-03-08T12:22:53;101208.25;;;9.48;81.42
71770;BME280;66386;52.122;5.420;2024-03-08T12:25:26;101194.63;;;9.46;80.92
71770;BME280;66386;52.122;5.420;2024-03-08T12:27:54;101200.44;;;9.53;80.28
71770;BME280;66386;52.122;5.420;2024-03-08T12:30:24;101211.03;;;9.40;83.06
71770;BME280;66386;52.122;5.420;2024-03-08T12:32:58;101191.38;;;9.39;82.13
71770;BME280;66386;52.122;5.420;2024-03-08T12:35:27;101182.16;;;9.32;82.16
71770;BME280;66386;52.122;5.420;2024-03-08T12:37:55;101177.00;;;9.34;82.60
71770;BME280;66386;52.122;5.420;2024-03-08T12:40:32;101172.63;;;9.37;81.21
71770;BME280;66386;52.122;5.420;2024-03-08T12:43:01;101172.75;;;9.33;80.50
71770;BME280;66386;52.122;5.420;2024-03-08T12:45:29;101169.03;;;9.43;82.00
71770;BME280;66386;52.122;5.420;2024-03-08T12:47:55;101157.78;;;9.49;82.79
71770;BME280;66386;52.122;5.420;2024-03-08T12:50:23;101153.56;;;9.48;81.06
71770;BME280;66386;52.122;5.420;2024-03-08T12:52:51;101160.38;;;9.47;81.66
71770;BME280;66386;52.122;5.420;2024-03-08T12:55:20;101157.81;;;9.47;80.71
71770;BME280;66386;52.122;5.420;2024-03-08T12:57:50;101150.16;;;9.46;80.59
71770;BME280;66386;52.122;5.420;2024-03-08T13:00:16;101157.09;;;9.43;80.53
71770;BME280;66386;52.122;5.420;2024-03-08T13:02:46;101146.69;;;9.48;83.27
71770;BME280;66386;52.122;5.420;2024-03-08T13:05:13;101142.38;;;9.49;80.01
71770;BME280;66386;52.122;5.420;2024-03-08T13:07:43;101142.56;;;9.42;78.96
71770;BME280;66386;52.122;5.420;2024-03-08T13:10:13;101140.88;;;9.41;80.01